Aérodrome :
LOGIN :

S'inscrire | Disclaimer

   EN    FR    IT 

 










Légende :    VFR   VFR Marginal   IFR   IFR Intensif   IFR Très Intensif
Visi : 
Plafond : 
>= 8 km
>= 3000ft
5 à 8 km
1000 à 3000 ft
1500m à 5 km
500 à 1000 ft
800 à 1500m
200 à 500 ft
< 800m
< 200 ft
Symboles :   Orages  Brouillard  Fortes neiges  Fortes précipitations  Vent > 20 kt
SIGMETs :   Divers  Orages  Givrage  Turbulence  Onde Orograph.  Cendres Volcan.






- Altitude de l'aérodrome : 919 ft
- Code IATA : IFO


UKLI - Ivano Frankivs'k

DERNIER METAR :
  • 141800Z 00000MPS CAVOK 10/08 Q1020 R10/090070 NOSIG

METARs EXPIRÉS :
  • 141730Z 00000MPS CAVOK 11/08 Q1020 R10/090070 NOSIG
  • 141700Z 00000MPS CAVOK 12/08 Q1020 R28/090070 NOSIG
  • 141630Z 00000MPS CAVOK 14/09 Q1020 R28/090070 NOSIG
  • 141600Z 15001MPS CAVOK 15/09 Q1020 R28/090070 NOSIG
  • 141530Z 13001MPS CAVOK 18/10 Q1019 R28/090070 NOSIG

TAF TAF UKLI
Valide du 14 à 18h jusqu'au 15 à 03h UTC


141701Z 1418/1503 VRB01MPS 9999 SCT030
TEMPO 1421/1503 2100 BR BKN010



MET'MAP, la Météo Aéronautique d'un coup d'oeil ! - Copyright ORBIFLY Décembre 2007 - Disclaimer

ORBIFLY MET'MAP TEAM :

Programmation & Développement : Alexandra Zaïnal
Conception & Développement : Baudouin d'Aumeries
Co-Programmation & Développement : Marc-Olivier Méhu
Soutien technique & logistique : Manuel Goepfert

Contact : metmap@orbifly.com




SOURCES & CREDITS :

   NOAA